sensor_id;sensor_type;location;lat;lon;timestamp;P1;durP1;ratioP1;P2;durP2;ratioP2
43152;SDS011;28756;49.064;9.290;2023-02-15T00:00:21;49.00;;;11.10;;
43152;SDS011;28756;49.064;9.290;2023-02-15T00:02:47;26.95;;;11.05;;
43152;SDS011;28756;49.064;9.290;2023-02-15T00:05:13;46.45;;;12.20;;
43152;SDS011;28756;49.064;9.290;2023-02-15T00:07:39;28.33;;;10.13;;
43152;SDS011;28756;49.064;9.290;2023-02-15T00:10:05;28.67;;;11.38;;
43152;SDS011;28756;49.064;9.290;2023-02-15T00:12:31;38.92;;;11.07;;
43152;SDS011;28756;49.064;9.290;2023-02-15T00:14:57;62.85;;;12.43;;
43152;SDS011;28756;49.064;9.290;2023-02-15T00:17:23;66.80;;;11.77;;
43152;SDS011;28756;49.064;9.290;2023-02-15T00:19:49;57.30;;;13.23;;
43152;SDS011;28756;49.064;9.290;2023-02-15T00:22:14;67.93;;;12.15;;
43152;SDS011;28756;49.064;9.290;2023-02-15T00:24:40;40.30;;;11.57;;
43152;SDS011;28756;49.064;9.290;2023-02-15T00:27:06;22.08;;;10.65;;
43152;SDS011;28756;49.064;9.290;2023-02-15T00:29:33;40.63;;;11.30;;
43152;SDS011;28756;49.064;9.290;2023-02-15T00:31:59;20.27;;;10.40;;
43152;SDS011;28756;49.064;9.290;2023-02-15T00:34:25;22.20;;;10.85;;
43152;SDS011;28756;49.064;9.290;2023-02-15T00:36:52;26.17;;;10.43;;
43152;SDS011;28756;49.064;9.290;2023-02-15T00:39:18;22.48;;;9.88;;
43152;SDS011;28756;49.064;9.290;2023-02-15T00:41:44;17.45;;;9.35;;
43152;SDS011;28756;49.064;9.290;2023-02-15T00:44:11;26.90;;;10.88;;
43152;SDS011;28756;49.064;9.290;2023-02-15T00:46:38;22.80;;;9.88;;
43152;SDS011;28756;49.064;9.290;2023-02-15T00:49:04;23.30;;;10.02;;
43152;SDS011;28756;49.064;9.290;2023-02-15T00:51:30;16.95;;;10.20;;
43152;SDS011;28756;49.064;9.290;2023-02-15T00:53:56;15.65;;;10.48;;
43152;SDS011;28756;49.064;9.290;2023-02-15T00:56:22;13.27;;;9.40;;
43152;SDS011;28756;49.064;9.290;2023-02-15T00:58:48;17.58;;;10.38;;
43152;SDS011;28756;49.064;9.290;2023-02-15T01:01:18;20.10;;;10.27;;
43152;SDS011;28756;49.064;9.290;2023-02-15T01:03:46;12.25;;;8.90;;
43152;SDS011;28756;49.064;9.290;2023-02-15T01:06:13;13.07;;;9.35;;
43152;SDS011;28756;49.064;9.290;2023-02-15T01:08:40;14.50;;;9.75;;
43152;SDS011;28756;49.064;9.290;2023-02-15T01:11:07;16.65;;;10.32;;
43152;SDS011;28756;49.064;9.290;2023-02-15T01:13:39;23.73;;;11.23;;
43152;SDS011;28756;49.064;9.290;2023-02-15T01:16:05;15.55;;;9.70;;
43152;SDS011;28756;49.064;9.290;2023-02-15T01:18:33;16.90;;;10.35;;
43152;SDS011;28756;49.064;9.290;2023-02-15T01:21:00;19.23;;;10.43;;
43152;SDS011;28756;49.064;9.290;2023-02-15T01:23:34;19.77;;;10.38;;
43152;SDS011;28756;49.064;9.290;2023-02-15T01:26:03;23.08;;;10.35;;
43152;SDS011;28756;49.064;9.290;2023-02-15T01:28:28;22.00;;;10.15;;
43152;SDS011;28756;49.064;9.290;2023-02-15T01:30:54;18.83;;;9.80;;
43152;SDS011;28756;49.064;9.290;2023-02-15T01:33:20;16.95;;;9.95;;
43152;SDS011;28756;49.064;9.290;2023-02-15T01:35:45;13.82;;;9.70;;
43152;SDS011;28756;49.064;9.290;2023-02-15T01:38:12;14.73;;;9.30;;
43152;SDS011;28756;49.064;9.290;2023-02-15T01:40:38;15.13;;;9.75;;
43152;SDS011;28756;49.064;9.290;2023-02-15T01:43:11;12.57;;;9.60;;
43152;SDS011;28756;49.064;9.290;2023-02-15T01:45:37;13.35;;;9.68;;
43152;SDS011;28756;49.064;9.290;2023-02-15T01:48:05;14.38;;;9.23;;
43152;SDS011;28756;49.064;9.290;2023-02-15T01:50:43;13.32;;;9.40;;
43152;SDS011;28756;49.064;9.290;2023-02-15T01:53:15;13.77;;;9.27;;
43152;SDS011;28756;49.064;9.290;2023-02-15T01:56:11;12.52;;;9.18;;
43152;SDS011;28756;49.064;9.290;2023-02-15T01:58:53;15.25;;;9.70;;
43152;SDS011;28756;49.064;9.290;2023-02-15T02:01:24;13.07;;;9.35;;
43152;SDS011;28756;49.064;9.290;2023-02-15T02:06:27;11.25;;;8.38;;
43152;SDS011;28756;49.064;9.290;2023-02-15T02:08:54;11.88;;;8.98;;
43152;SDS011;28756;49.064;9.290;2023-02-15T02:11:21;11.82;;;8.85;;
43152;SDS011;28756;49.064;9.290;2023-02-15T02:13:47;11.70;;;9.07;;
43152;SDS011;28756;49.064;9.290;2023-02-15T02:18:59;13.10;;;9.13;;
43152;SDS011;28756;49.064;9.290;2023-02-15T02:37:20;21.15;;;9.60;;
43152;SDS011;28756;49.064;9.290;2023-02-15T02:39:57;11.60;;;8.52;;
43152;SDS011;28756;49.064;9.290;2023-02-15T02:42:49;13.15;;;8.98;;
43152;SDS011;28756;49.064;9.290;2023-02-15T02:45:25;12.13;;;8.98;;
43152;SDS011;28756;49.064;9.290;2023-02-15T02:48:06;42.22;;;9.85;;
43152;SDS011;28756;49.064;9.290;2023-02-15T02:50:39;34.05;;;10.02;;
43152;SDS011;28756;49.064;9.290;2023-02-15T02:53:06;29.50;;;10.75;;
43152;SDS011;28756;49.064;9.290;2023-02-15T02:55:36;15.93;;;10.70;;
43152;SDS011;28756;49.064;9.290;2023-02-15T02:58:21;12.32;;;8.95;;
43152;SDS011;28756;49.064;9.290;2023-02-15T03:01:09;16.67;;;10.32;;
43152;SDS011;28756;49.064;9.290;2023-02-15T03:04:03;29.88;;;11.73;;
43152;SDS011;28756;49.064;9.290;2023-02-15T03:09:37;45.55;;;12.45;;
43152;SDS011;28756;49.064;9.290;2023-02-15T03:12:11;34.00;;;13.05;;
43152;SDS011;28756;49.064;9.290;2023-02-15T03:14:41;22.90;;;11.90;;
43152;SDS011;28756;49.064;9.290;2023-02-15T03:17:13;28.92;;;12.55;;
43152;SDS011;28756;49.064;9.290;2023-02-15T03:19:41;20.58;;;11.40;;
43152;SDS011;28756;49.064;9.290;2023-02-15T03:22:15;20.50;;;11.30;;
43152;SDS011;28756;49.064;9.290;2023-02-15T03:24:57;19.75;;;11.65;;
43152;SDS011;28756;49.064;9.290;2023-02-15T03:27:43;18.80;;;10.93;;
43152;SDS011;28756;49.064;9.290;2023-02-15T03:30:15;13.88;;;9.88;;
43152;SDS011;28756;49.064;9.290;2023-02-15T03:32:45;31.70;;;11.23;;
43152;SDS011;28756;49.064;9.290;2023-02-15T03:35:13;20.80;;;10.82;;
43152;SDS011;28756;49.064;9.290;2023-02-15T03:37:53;24.10;;;10.77;;
43152;SDS011;28756;49.064;9.290;2023-02-15T03:40:26;17.88;;;10.48;;
43152;SDS011;28756;49.064;9.290;2023-02-15T03:43:22;33.33;;;11.07;;
43152;SDS011;28756;49.064;9.290;2023-02-15T03:46:05;19.10;;;10.40;;
43152;SDS011;28756;49.064;9.290;2023-02-15T03:48:47;19.02;;;10.25;;
43152;SDS011;28756;49.064;9.290;2023-02-15T03:51:29;12.25;;;8.88;;
43152;SDS011;28756;49.064;9.290;2023-02-15T03:54:04;13.32;;;9.52;;
43152;SDS011;28756;49.064;9.290;2023-02-15T03:56:38;14.32;;;10.38;;
43152;SDS011;28756;49.064;9.290;2023-02-15T03:59:06;14.45;;;9.52;;
43152;SDS011;28756;49.064;9.290;2023-02-15T04:04:39;16.08;;;10.63;;
43152;SDS011;28756;49.064;9.290;2023-02-15T04:07:09;14.35;;;9.85;;
43152;SDS011;28756;49.064;9.290;2023-02-15T04:09:35;17.08;;;10.88;;
43152;SDS011;28756;49.064;9.290;2023-02-15T04:12:20;19.40;;;10.90;;
43152;SDS011;28756;49.064;9.290;2023-02-15T04:14:46;17.67;;;11.00;;
43152;SDS011;28756;49.064;9.290;2023-02-15T04:17:47;13.20;;;9.73;;
43152;SDS011;28756;49.064;9.290;2023-02-15T04:20:13;16.73;;;10.27;;
43152;SDS011;28756;49.064;9.290;2023-02-15T04:22:57;17.02;;;11.13;;
43152;SDS011;28756;49.064;9.290;2023-02-15T04:25:41;15.00;;;10.63;;
43152;SDS011;28756;49.064;9.290;2023-02-15T04:28:07;23.15;;;12.70;;
43152;SDS011;28756;49.064;9.290;2023-02-15T04:30:33;15.07;;;10.90;;
43152;SDS011;28756;49.064;9.290;2023-02-15T04:32:58;25.58;;;12.15;;
43152;SDS011;28756;49.064;9.290;2023-02-15T04:35:24;16.13;;;11.20;;
43152;SDS011;28756;49.064;9.290;2023-02-15T04:37:50;18.00;;;11.85;;
43152;SDS011;28756;49.064;9.290;2023-02-15T04:40:16;25.67;;;11.73;;
43152;SDS011;28756;49.064;9.290;2023-02-15T04:42:42;34.50;;;12.73;;
43152;SDS011;28756;49.064;9.290;2023-02-15T04:45:08;19.60;;;11.23;;
43152;SDS011;28756;49.064;9.290;2023-02-15T04:47:34;39.92;;;12.48;;
43152;SDS011;28756;49.064;9.290;2023-02-15T04:50:00;25.08;;;11.65;;
43152;SDS011;28756;49.064;9.290;2023-02-15T04:52:25;34.63;;;13.32;;
43152;SDS011;28756;49.064;9.290;2023-02-15T04:54:51;15.27;;;10.70;;
43152;SDS011;28756;49.064;9.290;2023-02-15T04:57:17;28.23;;;11.88;;
43152;SDS011;28756;49.064;9.290;2023-02-15T04:59:42;22.52;;;11.30;;
43152;SDS011;28756;49.064;9.290;2023-02-15T05:02:08;19.85;;;11.45;;
43152;SDS011;28756;49.064;9.290;2023-02-15T05:04:34;16.67;;;11.18;;
43152;SDS011;28756;49.064;9.290;2023-02-15T05:07:00;69.68;;;13.80;;
43152;SDS011;28756;49.064;9.290;2023-02-15T05:09:25;29.90;;;11.90;;
43152;SDS011;28756;49.064;9.290;2023-02-15T05:11:51;21.63;;;11.90;;
43152;SDS011;28756;49.064;9.290;2023-02-15T05:14:17;29.77;;;11.65;;
43152;SDS011;28756;49.064;9.290;2023-02-15T05:16:42;40.70;;;12.95;;
43152;SDS011;28756;49.064;9.290;2023-02-15T05:19:08;36.67;;;14.05;;
43152;SDS011;28756;49.064;9.290;2023-02-15T05:21:34;24.88;;;11.50;;
43152;SDS011;28756;49.064;9.290;2023-02-15T05:23:59;21.88;;;12.13;;
43152;SDS011;28756;49.064;9.290;2023-02-15T05:26:25;16.55;;;11.00;;
43152;SDS011;28756;49.064;9.290;2023-02-15T05:29:09;16.35;;;11.20;;
43152;SDS011;28756;49.064;9.290;2023-02-15T05:31:35;16.98;;;11.27;;
43152;SDS011;28756;49.064;9.290;2023-02-15T05:34:02;22.67;;;12.73;;
43152;SDS011;28756;49.064;9.290;2023-02-15T05:36:28;22.55;;;12.85;;
43152;SDS011;28756;49.064;9.290;2023-02-15T05:38:54;16.35;;;11.55;;
43152;SDS011;28756;49.064;9.290;2023-02-15T05:41:20;25.67;;;12.55;;
43152;SDS011;28756;49.064;9.290;2023-02-15T05:43:46;27.98;;;13.60;;
43152;SDS011;28756;49.064;9.290;2023-02-15T05:46:12;24.52;;;13.82;;
43152;SDS011;28756;49.064;9.290;2023-02-15T05:48:37;38.58;;;14.23;;
43152;SDS011;28756;49.064;9.290;2023-02-15T05:51:07;60.60;;;15.13;;
43152;SDS011;28756;49.064;9.290;2023-02-15T05:53:38;28.27;;;13.23;;
43152;SDS011;28756;49.064;9.290;2023-02-15T05:56:05;29.33;;;13.07;;
43152;SDS011;28756;49.064;9.290;2023-02-15T05:58:34;24.52;;;12.88;;
43152;SDS011;28756;49.064;9.290;2023-02-15T06:01:09;29.35;;;13.80;;
43152;SDS011;28756;49.064;9.290;2023-02-15T06:03:40;20.30;;;11.93;;
43152;SDS011;28756;49.064;9.290;2023-02-15T06:06:06;35.85;;;13.85;;
43152;SDS011;28756;49.064;9.290;2023-02-15T06:08:33;38.53;;;13.57;;
43152;SDS011;28756;49.064;9.290;2023-02-15T06:11:00;19.85;;;10.88;;
43152;SDS011;28756;49.064;9.290;2023-02-15T06:13:25;31.42;;;12.77;;
43152;SDS011;28756;49.064;9.290;2023-02-15T06:15:51;22.70;;;13.15;;
43152;SDS011;28756;49.064;9.290;2023-02-15T06:18:17;25.50;;;13.20;;
43152;SDS011;28756;49.064;9.290;2023-02-15T06:20:45;23.42;;;13.70;;
43152;SDS011;28756;49.064;9.290;2023-02-15T06:23:11;18.42;;;12.70;;
43152;SDS011;28756;49.064;9.290;2023-02-15T06:25:37;21.70;;;12.98;;
43152;SDS011;28756;49.064;9.290;2023-02-15T06:28:03;29.55;;;12.38;;
43152;SDS011;28756;49.064;9.290;2023-02-15T06:30:29;21.75;;;12.10;;
43152;SDS011;28756;49.064;9.290;2023-02-15T06:32:55;32.47;;;11.95;;
43152;SDS011;28756;49.064;9.290;2023-02-15T06:35:20;16.85;;;11.55;;
43152;SDS011;28756;49.064;9.290;2023-02-15T06:37:47;24.00;;;11.77;;
43152;SDS011;28756;49.064;9.290;2023-02-15T06:40:13;17.73;;;11.27;;
43152;SDS011;28756;49.064;9.290;2023-02-15T06:42:39;18.15;;;10.85;;
43152;SDS011;28756;49.064;9.290;2023-02-15T06:45:07;22.35;;;11.80;;
43152;SDS011;28756;49.064;9.290;2023-02-15T06:47:33;18.42;;;11.70;;
43152;SDS011;28756;49.064;9.290;2023-02-15T06:49:59;21.77;;;11.75;;
43152;SDS011;28756;49.064;9.290;2023-02-15T06:52:25;19.55;;;11.30;;
43152;SDS011;28756;49.064;9.290;2023-02-15T06:54:51;19.77;;;10.77;;
43152;SDS011;28756;49.064;9.290;2023-02-15T06:57:16;21.52;;;11.65;;
43152;SDS011;28756;49.064;9.290;2023-02-15T06:59:42;19.92;;;12.35;;
43152;SDS011;28756;49.064;9.290;2023-02-15T07:02:11;21.17;;;11.88;;
43152;SDS011;28756;49.064;9.290;2023-02-15T07:04:38;26.48;;;11.38;;
43152;SDS011;28756;49.064;9.290;2023-02-15T07:07:04;19.23;;;11.75;;
43152;SDS011;28756;49.064;9.290;2023-02-15T07:09:34;16.30;;;10.35;;
43152;SDS011;28756;49.064;9.290;2023-02-15T07:11:59;30.48;;;13.45;;
43152;SDS011;28756;49.064;9.290;2023-02-15T07:14:44;46.65;;;14.20;;
43152;SDS011;28756;49.064;9.290;2023-02-15T07:17:09;17.70;;;11.75;;
43152;SDS011;28756;49.064;9.290;2023-02-15T07:19:35;35.90;;;13.50;;
43152;SDS011;28756;49.064;9.290;2023-02-15T07:22:01;26.63;;;12.93;;
43152;SDS011;28756;49.064;9.290;2023-02-15T07:24:28;58.78;;;14.50;;
43152;SDS011;28756;49.064;9.290;2023-02-15T07:26:54;43.83;;;13.45;;
43152;SDS011;28756;49.064;9.290;2023-02-15T07:29:20;28.27;;;13.15;;
43152;SDS011;28756;49.064;9.290;2023-02-15T07:31:45;44.17;;;14.05;;
43152;SDS011;28756;49.064;9.290;2023-02-15T07:34:11;36.53;;;11.30;;
43152;SDS011;28756;49.064;9.290;2023-02-15T07:36:37;76.50;;;15.05;;
43152;SDS011;28756;49.064;9.290;2023-02-15T07:39:03;33.55;;;11.85;;
43152;SDS011;28756;49.064;9.290;2023-02-15T07:41:29;23.83;;;11.43;;
43152;SDS011;28756;49.064;9.290;2023-02-15T07:43:54;20.25;;;11.00;;
43152;SDS011;28756;49.064;9.290;2023-02-15T07:46:20;19.75;;;10.80;;
43152;SDS011;28756;49.064;9.290;2023-02-15T07:48:46;32.35;;;12.10;;
43152;SDS011;28756;49.064;9.290;2023-02-15T07:51:12;45.15;;;12.90;;
43152;SDS011;28756;49.064;9.290;2023-02-15T07:53:39;22.38;;;12.02;;
43152;SDS011;28756;49.064;9.290;2023-02-15T07:56:07;28.63;;;12.88;;
43152;SDS011;28756;49.064;9.290;2023-02-15T07:58:37;26.98;;;13.05;;
43152;SDS011;28756;49.064;9.290;2023-02-15T08:01:16;33.35;;;13.45;;
43152;SDS011;28756;49.064;9.290;2023-02-15T08:04:08;73.13;;;15.15;;
43152;SDS011;28756;49.064;9.290;2023-02-15T08:06:36;25.20;;;13.20;;
43152;SDS011;28756;49.064;9.290;2023-02-15T08:09:03;21.00;;;11.88;;
43152;SDS011;28756;49.064;9.290;2023-02-15T08:11:33;21.42;;;12.30;;
43152;SDS011;28756;49.064;9.290;2023-02-15T08:14:06;28.00;;;13.70;;
43152;SDS011;28756;49.064;9.290;2023-02-15T08:16:42;17.90;;;11.35;;
43152;SDS011;28756;49.064;9.290;2023-02-15T08:19:19;32.63;;;11.88;;
43152;SDS011;28756;49.064;9.290;2023-02-15T08:21:54;36.08;;;13.88;;
43152;SDS011;28756;49.064;9.290;2023-02-15T08:24:30;20.88;;;11.90;;
43152;SDS011;28756;49.064;9.290;2023-02-15T08:26:58;17.92;;;12.25;;
43152;SDS011;28756;49.064;9.290;2023-02-15T08:29:25;41.50;;;14.60;;
43152;SDS011;28756;49.064;9.290;2023-02-15T08:31:53;23.52;;;12.38;;
43152;SDS011;28756;49.064;9.290;2023-02-15T08:34:27;19.08;;;13.10;;
43152;SDS011;28756;49.064;9.290;2023-02-15T08:37:02;25.85;;;12.82;;
43152;SDS011;28756;49.064;9.290;2023-02-15T08:39:28;22.27;;;13.35;;
43152;SDS011;28756;49.064;9.290;2023-02-15T08:41:54;31.52;;;13.27;;
43152;SDS011;28756;49.064;9.290;2023-02-15T08:44:20;19.52;;;12.75;;
43152;SDS011;28756;49.064;9.290;2023-02-15T08:46:46;20.95;;;13.27;;
43152;SDS011;28756;49.064;9.290;2023-02-15T08:49:18;20.80;;;13.48;;
43152;SDS011;28756;49.064;9.290;2023-02-15T08:51:45;21.92;;;13.88;;
43152;SDS011;28756;49.064;9.290;2023-02-15T08:54:13;30.17;;;13.50;;
43152;SDS011;28756;49.064;9.290;2023-02-15T08:56:42;29.58;;;14.57;;
43152;SDS011;28756;49.064;9.290;2023-02-15T08:59:11;18.90;;;12.70;;
43152;SDS011;28756;49.064;9.290;2023-02-15T09:01:43;25.85;;;13.95;;
43152;SDS011;28756;49.064;9.290;2023-02-15T09:04:09;22.75;;;13.55;;
43152;SDS011;28756;49.064;9.290;2023-02-15T09:06:36;32.05;;;13.30;;
43152;SDS011;28756;49.064;9.290;2023-02-15T09:09:03;30.45;;;14.15;;
43152;SDS011;28756;49.064;9.290;2023-02-15T09:11:30;45.47;;;15.40;;
43152;SDS011;28756;49.064;9.290;2023-02-15T09:14:01;62.83;;;15.60;;
43152;SDS011;28756;49.064;9.290;2023-02-15T09:16:38;34.80;;;13.93;;
43152;SDS011;28756;49.064;9.290;2023-02-15T09:19:05;28.83;;;13.30;;
43152;SDS011;28756;49.064;9.290;2023-02-15T09:21:35;21.95;;;13.48;;
43152;SDS011;28756;49.064;9.290;2023-02-15T09:24:04;21.73;;;14.20;;
43152;SDS011;28756;49.064;9.290;2023-02-15T09:26:34;26.42;;;13.55;;
43152;SDS011;28756;49.064;9.290;2023-02-15T09:29:04;21.98;;;14.05;;
43152;SDS011;28756;49.064;9.290;2023-02-15T09:31:31;19.00;;;12.63;;
43152;SDS011;28756;49.064;9.290;2023-02-15T09:34:01;20.23;;;12.95;;
43152;SDS011;28756;49.064;9.290;2023-02-15T09:36:34;21.83;;;13.18;;
43152;SDS011;28756;49.064;9.290;2023-02-15T09:56:15;23.25;;;13.32;;
43152;SDS011;28756;49.064;9.290;2023-02-15T09:58:53;29.33;;;15.38;;
43152;SDS011;28756;49.064;9.290;2023-02-15T10:04:54;19.02;;;13.20;;
43152;SDS011;28756;49.064;9.290;2023-02-15T10:08:00;18.63;;;13.15;;
43152;SDS011;28756;49.064;9.290;2023-02-15T10:10:36;20.52;;;14.50;;
43152;SDS011;28756;49.064;9.290;2023-02-15T10:28:46;20.27;;;14.68;;
43152;SDS011;28756;49.064;9.290;2023-02-15T10:43:39;23.17;;;14.90;;
43152;SDS011;28756;49.064;9.290;2023-02-15T10:46:23;21.60;;;15.45;;
43152;SDS011;28756;49.064;9.290;2023-02-15T10:49:32;21.65;;;15.02;;
43152;SDS011;28756;49.064;9.290;2023-02-15T10:58:28;22.35;;;15.05;;
43152;SDS011;28756;49.064;9.290;2023-02-15T11:06:51;20.27;;;14.40;;
43152;SDS011;28756;49.064;9.290;2023-02-15T11:09:22;21.73;;;14.52;;
43152;SDS011;28756;49.064;9.290;2023-02-15T11:11:54;19.77;;;14.43;;
43152;SDS011;28756;49.064;9.290;2023-02-15T11:14:31;19.33;;;14.95;;
43152;SDS011;28756;49.064;9.290;2023-02-15T11:17:10;20.83;;;14.98;;
43152;SDS011;28756;49.064;9.290;2023-02-15T11:20:24;23.00;;;15.82;;
43152;SDS011;28756;49.064;9.290;2023-02-15T11:22:30;25.60;;;15.52;;
43152;SDS011;28756;49.064;9.290;2023-02-15T11:24:58;22.02;;;16.27;;
43152;SDS011;28756;49.064;9.290;2023-02-15T11:27:29;18.88;;;14.27;;
43152;SDS011;28756;49.064;9.290;2023-02-15T11:30:11;18.80;;;13.90;;
43152;SDS011;28756;49.064;9.290;2023-02-15T11:32:40;18.40;;;13.68;;
43152;SDS011;28756;49.064;9.290;2023-02-15T11:37:37;20.13;;;15.20;;
43152;SDS011;28756;49.064;9.290;2023-02-15T11:40:19;19.83;;;14.18;;
43152;SDS011;28756;49.064;9.290;2023-02-15T11:43:15;19.63;;;15.38;;
43152;SDS011;28756;49.064;9.290;2023-02-15T11:45:45;17.77;;;14.20;;
43152;SDS011;28756;49.064;9.290;2023-02-15T11:48:12;20.15;;;14.45;;
43152;SDS011;28756;49.064;9.290;2023-02-15T11:50:40;17.58;;;14.15;;
43152;SDS011;28756;49.064;9.290;2023-02-15T11:53:12;16.75;;;13.27;;
43152;SDS011;28756;49.064;9.290;2023-02-15T11:55:43;18.92;;;13.57;;
43152;SDS011;28756;49.064;9.290;2023-02-15T12:01:27;16.50;;;13.20;;
43152;SDS011;28756;49.064;9.290;2023-02-15T12:04:08;17.67;;;13.10;;
43152;SDS011;28756;49.064;9.290;2023-02-15T12:07:15;16.77;;;12.55;;
43152;SDS011;28756;49.064;9.290;2023-02-15T12:09:59;17.45;;;13.20;;
43152;SDS011;28756;49.064;9.290;2023-02-15T12:12:46;17.70;;;13.00;;
43152;SDS011;28756;49.064;9.290;2023-02-15T12:15:13;18.60;;;14.02;;
43152;SDS011;28756;49.064;9.290;2023-02-15T12:17:52;18.30;;;14.10;;
43152;SDS011;28756;49.064;9.290;2023-02-15T12:22:50;17.13;;;13.20;;
43152;SDS011;28756;49.064;9.290;2023-02-15T12:25:40;19.77;;;14.48;;
43152;SDS011;28756;49.064;9.290;2023-02-15T12:31:07;20.63;;;14.15;;
43152;SDS011;28756;49.064;9.290;2023-02-15T12:33:47;17.40;;;13.25;;
43152;SDS011;28756;49.064;9.290;2023-02-15T12:36:19;18.60;;;13.80;;
43152;SDS011;28756;49.064;9.290;2023-02-15T12:39:14;20.05;;;14.65;;
43152;SDS011;28756;49.064;9.290;2023-02-15T12:41:46;18.25;;;13.27;;
43152;SDS011;28756;49.064;9.290;2023-02-15T12:44:24;18.40;;;14.43;;
43152;SDS011;28756;49.064;9.290;2023-02-15T12:47:31;18.65;;;14.35;;
43152;SDS011;28756;49.064;9.290;2023-02-15T12:50:05;17.20;;;13.32;;
43152;SDS011;28756;49.064;9.290;2023-02-15T12:52:44;17.40;;;13.65;;
43152;SDS011;28756;49.064;9.290;2023-02-15T12:55:18;20.23;;;14.60;;
43152;SDS011;28756;49.064;9.290;2023-02-15T13:03:37;18.05;;;14.07;;
43152;SDS011;28756;49.064;9.290;2023-02-15T13:06:19;17.55;;;13.85;;
43152;SDS011;28756;49.064;9.290;2023-02-15T13:08:47;18.40;;;13.18;;
43152;SDS011;28756;49.064;9.290;2023-02-15T13:11:25;20.10;;;14.80;;
43152;SDS011;28756;49.064;9.290;2023-02-15T13:14:20;17.85;;;13.23;;
43152;SDS011;28756;49.064;9.290;2023-02-15T13:16:56;17.58;;;13.65;;
43152;SDS011;28756;49.064;9.290;2023-02-15T13:19:40;20.60;;;14.18;;
43152;SDS011;28756;49.064;9.290;2023-02-15T13:22:15;19.20;;;14.18;;
43152;SDS011;28756;49.064;9.290;2023-02-15T13:24:47;19.65;;;14.68;;
43152;SDS011;28756;49.064;9.290;2023-02-15T13:27:19;17.40;;;13.23;;
43152;SDS011;28756;49.064;9.290;2023-02-15T13:29:53;18.95;;;14.13;;
43152;SDS011;28756;49.064;9.290;2023-02-15T13:32:36;17.90;;;13.75;;
43152;SDS011;28756;49.064;9.290;2023-02-15T13:35:06;16.70;;;11.88;;
43152;SDS011;28756;49.064;9.290;2023-02-15T13:37:55;17.45;;;13.70;;
43152;SDS011;28756;49.064;9.290;2023-02-15T13:41:03;17.33;;;13.02;;
43152;SDS011;28756;49.064;9.290;2023-02-15T13:49:53;19.63;;;14.90;;
43152;SDS011;28756;49.064;9.290;2023-02-15T13:52:58;20.02;;;15.05;;
43152;SDS011;28756;49.064;9.290;2023-02-15T13:58:25;21.05;;;16.27;;
43152;SDS011;28756;49.064;9.290;2023-02-15T14:01:15;19.88;;;14.55;;
43152;SDS011;28756;49.064;9.290;2023-02-15T14:06:55;18.65;;;14.10;;
43152;SDS011;28756;49.064;9.290;2023-02-15T14:09:35;18.50;;;14.00;;
43152;SDS011;28756;49.064;9.290;2023-02-15T14:18:29;20.27;;;14.65;;
43152;SDS011;28756;49.064;9.290;2023-02-15T14:24:07;22.83;;;16.75;;
43152;SDS011;28756;49.064;9.290;2023-02-15T14:35:03;20.67;;;15.95;;
43152;SDS011;28756;49.064;9.290;2023-02-15T14:37:41;22.55;;;16.63;;
43152;SDS011;28756;49.064;9.290;2023-02-15T14:40:41;23.88;;;16.35;;
43152;SDS011;28756;49.064;9.290;2023-02-15T14:49:38;24.67;;;17.08;;
43152;SDS011;28756;49.064;9.290;2023-02-15T14:52:06;21.70;;;16.80;;
43152;SDS011;28756;49.064;9.290;2023-02-15T15:07:59;26.85;;;17.33;;
43152;SDS011;28756;49.064;9.290;2023-02-15T15:10:36;25.60;;;17.60;;
43152;SDS011;28756;49.064;9.290;2023-02-15T15:19:01;23.88;;;15.88;;
43152;SDS011;28756;49.064;9.290;2023-02-15T15:50:18;23.02;;;16.20;;
43152;SDS011;28756;49.064;9.290;2023-02-15T15:52:49;26.98;;;17.58;;
43152;SDS011;28756;49.064;9.290;2023-02-15T15:55:22;24.17;;;16.60;;
43152;SDS011;28756;49.064;9.290;2023-02-15T15:57:54;26.90;;;18.05;;
43152;SDS011;28756;49.064;9.290;2023-02-15T16:00:35;26.65;;;18.40;;
43152;SDS011;28756;49.064;9.290;2023-02-15T16:03:13;25.55;;;18.05;;
43152;SDS011;28756;49.064;9.290;2023-02-15T16:05:51;25.08;;;17.40;;
43152;SDS011;28756;49.064;9.290;2023-02-15T16:08:27;24.52;;;17.15;;
43152;SDS011;28756;49.064;9.290;2023-02-15T16:10:58;25.52;;;17.15;;
43152;SDS011;28756;49.064;9.290;2023-02-15T16:13:33;25.20;;;16.52;;
43152;SDS011;28756;49.064;9.290;2023-02-15T16:15:59;21.80;;;16.30;;
43152;SDS011;28756;49.064;9.290;2023-02-15T16:18:25;25.85;;;17.85;;
43152;SDS011;28756;49.064;9.290;2023-02-15T16:20:57;25.65;;;16.45;;
43152;SDS011;28756;49.064;9.290;2023-02-15T16:28:56;20.38;;;13.80;;
43152;SDS011;28756;49.064;9.290;2023-02-15T16:31:23;26.42;;;16.90;;
43152;SDS011;28756;49.064;9.290;2023-02-15T16:33:51;27.73;;;17.25;;
43152;SDS011;28756;49.064;9.290;2023-02-15T16:36:26;20.77;;;15.20;;
43152;SDS011;28756;49.064;9.290;2023-02-15T16:41:28;20.98;;;14.45;;
43152;SDS011;28756;49.064;9.290;2023-02-15T16:43:56;24.85;;;16.35;;
43152;SDS011;28756;49.064;9.290;2023-02-15T16:46:29;20.23;;;14.15;;
43152;SDS011;28756;49.064;9.290;2023-02-15T16:49:04;24.02;;;15.30;;
43152;SDS011;28756;49.064;9.290;2023-02-15T16:51:56;20.90;;;14.32;;
43152;SDS011;28756;49.064;9.290;2023-02-15T16:54:31;18.95;;;13.45;;
43152;SDS011;28756;49.064;9.290;2023-02-15T16:56:57;18.55;;;13.60;;
43152;SDS011;28756;49.064;9.290;2023-02-15T17:02:12;27.65;;;18.70;;
43152;SDS011;28756;49.064;9.290;2023-02-15T17:07:39;22.75;;;15.93;;
43152;SDS011;28756;49.064;9.290;2023-02-15T17:13:37;23.45;;;16.02;;
43152;SDS011;28756;49.064;9.290;2023-02-15T17:18:31;24.52;;;17.38;;
43152;SDS011;28756;49.064;9.290;2023-02-15T17:21:24;22.00;;;14.93;;
43152;SDS011;28756;49.064;9.290;2023-02-15T17:23:57;29.15;;;19.45;;
43152;SDS011;28756;49.064;9.290;2023-02-15T17:26:32;33.17;;;21.48;;
43152;SDS011;28756;49.064;9.290;2023-02-15T17:29:09;42.80;;;26.35;;
43152;SDS011;28756;49.064;9.290;2023-02-15T17:31:53;38.75;;;24.55;;
43152;SDS011;28756;49.064;9.290;2023-02-15T17:34:42;32.72;;;21.30;;
43152;SDS011;28756;49.064;9.290;2023-02-15T17:37:14;32.38;;;20.88;;
43152;SDS011;28756;49.064;9.290;2023-02-15T17:39:52;32.28;;;20.30;;
43152;SDS011;28756;49.064;9.290;2023-02-15T17:42:19;35.17;;;21.35;;
43152;SDS011;28756;49.064;9.290;2023-02-15T17:44:44;32.28;;;20.92;;
43152;SDS011;28756;49.064;9.290;2023-02-15T17:47:13;28.17;;;18.80;;
43152;SDS011;28756;49.064;9.290;2023-02-15T17:49:42;29.42;;;19.25;;
43152;SDS011;28756;49.064;9.290;2023-02-15T17:52:11;27.80;;;18.52;;
43152;SDS011;28756;49.064;9.290;2023-02-15T17:54:40;33.65;;;21.00;;
43152;SDS011;28756;49.064;9.290;2023-02-15T17:57:26;25.55;;;17.45;;
43152;SDS011;28756;49.064;9.290;2023-02-15T17:59:52;24.92;;;16.90;;
43152;SDS011;28756;49.064;9.290;2023-02-15T18:02:37;27.10;;;18.20;;
43152;SDS011;28756;49.064;9.290;2023-02-15T18:05:22;25.42;;;16.75;;
43152;SDS011;28756;49.064;9.290;2023-02-15T18:08:13;22.13;;;15.65;;
43152;SDS011;28756;49.064;9.290;2023-02-15T18:11:00;31.13;;;18.48;;
43152;SDS011;28756;49.064;9.290;2023-02-15T18:13:45;24.42;;;16.65;;
43152;SDS011;28756;49.064;9.290;2023-02-15T18:16:17;27.70;;;18.33;;
43152;SDS011;28756;49.064;9.290;2023-02-15T18:18:50;31.75;;;19.83;;
43152;SDS011;28756;49.064;9.290;2023-02-15T18:21:17;26.00;;;16.63;;